Time;durP1;ratioP1;P1;durP2;ratioP2;P2;SDS_P1;SDS_P2;PMS_P1;PMS_P2;Temp;Humidity;BMP_temperature;BMP_pressure;BME280_temperature;BME280_humidity;BME280_pressure;Samples;Min_cycle;Max_cycle;Signal;HPM_P1;HPM_P2
2021/05/31 12:47:42;;;;;;;;;9.33;9.33;;;;;20.80;44.48;101282.00;5010893;28;45267;-53
2021/05/31 12:50:36;;;;;;;;;9.33;7.00;;;;;20.91;43.78;101274.56;4994450;28;45401;-53
2021/05/31 12:53:06;;;;;;;;;9.00;7.67;;;;;21.08;43.67;101286.28;4993297;28;45255;-52
2021/05/31 12:55:31;;;;;;;;;9.67;9.00;;;;;21.22;43.48;101283.97;4992546;28;45616;-49
2021/05/31 12:57:57;;;;;;;;;7.33;7.00;;;;;21.38;43.58;101278.94;4973482;28;47551;-53
2021/05/31 13:00:25;;;;;;;;;8.00;7.67;;;;;21.53;43.92;101271.34;4975030;28;45465;-52
2021/05/31 13:02:53;;;;;;;;;9.00;9.00;;;;;21.67;43.66;101279.63;4974645;28;45433;-52
2021/05/31 13:05:23;;;;;;;;;7.00;7.00;;;;;21.83;43.58;101265.78;4975153;28;45538;-50
2021/05/31 13:07:51;;;;;;;;;12.00;10.00;;;;;21.94;43.20;101274.13;4974788;28;46099;-59
2021/05/31 13:10:21;;;;;;;;;10.00;8.00;;;;;22.08;42.27;101265.63;4973413;28;45247;-54
2021/05/31 13:12:54;;;;;;;;;9.67;9.00;;;;;22.20;42.75;101265.09;4982562;28;45495;-52
2021/05/31 13:15:23;;;;;;;;;8.33;8.33;;;;;22.30;42.23;101267.38;4990011;28;45267;-57
2021/05/31 13:17:52;;;;;;;;;8.00;8.00;;;;;22.41;41.90;101267.78;4974425;28;46200;-57
2021/05/31 13:20:19;;;;;;;;;9.33;9.00;;;;;22.49;42.24;101267.47;4974776;28;45306;-57
2021/05/31 13:22:57;;;;;;;;;7.00;7.00;;;;;22.57;41.68;101267.13;5000797;27;45235;-56
2021/05/31 13:25:23;;;;;;;;;6.00;6.00;;;;;22.63;41.36;101257.13;4976475;27;45575;-56
2021/05/31 13:27:48;;;;;;;;;8.00;8.00;;;;;22.70;41.19;101265.66;4974264;28;45837;-56
2021/05/31 13:30:17;;;;;;;;;9.00;9.00;;;;;22.75;41.46;101266.31;4974781;28;45398;-57
2021/05/31 13:32:57;;;;;;;;;9.00;8.33;;;;;22.80;41.30;101256.38;4997051;28;45368;-56
2021/05/31 13:35:26;;;;;;;;;8.33;6.00;;;;;22.84;41.04;101249.13;4974917;28;45429;-57
2021/05/31 13:37:54;;;;;;;;;8.00;8.00;;;;;22.88;40.56;101240.16;4974415;28;46604;-56
2021/05/31 13:40:43;;;;;;;;;10.00;8.00;;;;;22.93;40.98;101245.22;4973286;28;45297;-57
2021/05/31 13:43:27;;;;;;;;;8.00;6.67;;;;;22.96;40.36;101243.31;4972993;28;45474;-56
2021/05/31 13:45:55;;;;;;;;;6.33;6.33;;;;;22.99;40.63;101244.94;4979517;28;45689;-56
2021/05/31 13:48:21;;;;;;;;;9.00;9.00;;;;;23.01;40.64;101248.38;4993710;28;46027;-57
2021/05/31 13:50:50;;;;;;;;;9.00;9.00;;;;;23.04;40.23;101242.09;4993785;28;45230;-57
2021/05/31 13:53:15;;;;;;;;;7.67;7.67;;;;;23.06;40.36;101235.81;4994184;28;45271;-57
2021/05/31 13:55:41;;;;;;;;;8.67;8.00;;;;;23.07;40.39;101232.19;4993413;28;52045;-56
2021/05/31 13:58:08;;;;;;;;;6.00;6.00;;;;;23.09;40.09;101235.63;4992840;28;46122;-58
2021/05/31 14:00:35;;;;;;;;;7.00;5.00;;;;;23.10;39.75;101237.38;4980114;28;45327;-58
2021/05/31 14:03:01;;;;;;;;;6.33;6.33;;;;;23.12;39.96;101240.81;4988040;28;45263;-62
2021/05/31 14:05:48;;;;;;;;;7.33;6.00;;;;;23.14;39.91;101227.50;4999258;27;45444;-58
2021/05/31 14:08:16;;;;;;;;;7.00;7.00;;;;;23.16;39.79;101230.91;5000291;27;46958;-57
2021/05/31 14:10:42;;;;;;;;;9.00;6.33;;;;;23.17;40.00;101226.50;5000244;28;45780;-56
2021/05/31 14:13:08;;;;;;;;;6.67;6.67;;;;;23.18;39.49;101226.41;5000391;28;45654;-56
2021/05/31 14:15:34;;;;;;;;;8.00;7.67;;;;;23.18;39.62;101226.41;5000523;28;45424;-56
2021/05/31 14:18:00;;;;;;;;;7.33;7.33;;;;;23.20;39.59;101221.94;5000065;28;45396;-56
2021/05/31 14:20:27;;;;;;;;;7.33;7.33;;;;;23.21;39.75;101236.06;5000122;27;45456;-56
2021/05/31 14:22:53;;;;;;;;;8.67;6.67;;;;;23.22;39.74;101222.72;5027883;27;45500;-56
2021/05/31 14:25:20;;;;;;;;;6.67;6.67;;;;;23.23;39.76;101219.16;4999276;27;45391;-57
2021/05/31 14:27:45;;;;;;;;;8.33;8.33;;;;;23.23;39.46;101216.50;4980293;28;46150;-56
2021/05/31 14:30:12;;;;;;;;;8.00;6.00;;;;;23.25;39.68;101217.28;4980552;28;45355;-58
2021/05/31 14:32:37;;;;;;;;;9.00;7.33;;;;;23.25;39.53;101212.00;4992761;28;45394;-58
2021/05/31 14:35:05;;;;;;;;;6.00;6.00;;;;;23.26;39.68;101216.38;4999211;28;45552;-55
2021/05/31 14:37:31;;;;;;;;;10.00;9.00;;;;;23.27;38.91;101212.78;4999594;28;47253;-55
2021/05/31 14:39:56;;;;;;;;;6.00;5.67;;;;;23.28;39.07;101210.97;4999923;28;45257;-56
2021/05/31 14:42:22;;;;;;;;;7.00;7.00;;;;;23.28;39.60;101211.84;5000014;27;45751;-55
2021/05/31 14:44:48;;;;;;;;;6.00;6.00;;;;;23.29;38.94;101210.06;4995531;28;45379;-55
2021/05/31 14:47:14;;;;;;;;;7.00;6.67;;;;;23.30;39.12;101211.78;4991183;28;47101;-55
2021/05/31 14:49:41;;;;;;;;;7.33;6.33;;;;;23.32;39.00;101198.44;4999661;28;45254;-56
2021/05/31 14:52:07;;;;;;;;;10.00;7.33;;;;;23.32;38.91;101209.91;4998570;28;45465;-56
2021/05/31 14:54:32;;;;;;;;;7.00;7.00;;;;;23.33;39.28;101210.75;4999709;28;45439;-55
2021/05/31 14:56:59;;;;;;;;;7.00;6.00;;;;;23.33;38.56;101210.75;4998148;28;48070;-56
2021/05/31 14:59:24;;;;;;;;;7.67;7.00;;;;;23.33;38.98;101206.34;4999283;28;45413;-57
2021/05/31 15:01:50;;;;;;;;;9.00;9.00;;;;;23.34;38.98;101208.06;5000106;27;46502;-55
2021/05/31 15:04:16;;;;;;;;;7.00;7.00;;;;;23.35;38.53;101198.31;4999888;28;45520;-56
2021/05/31 15:06:41;;;;;;;;;6.67;6.67;;;;;23.35;39.05;101196.53;4999750;28;46104;-57
2021/05/31 15:09:07;;;;;;;;;12.33;9.00;;;;;23.36;38.65;101189.44;4996252;28;57315;-56
2021/05/31 15:11:33;;;;;;;;;5.67;5.67;;;;;23.37;38.98;101193.78;4999554;28;50067;-56
2021/05/31 15:13:58;;;;;;;;;6.00;6.00;;;;;23.37;39.19;101191.16;4998555;28;45247;-55
2021/05/31 15:16:24;;;;;;;;;6.00;6.00;;;;;23.37;38.58;101192.00;4999628;28;46397;-56
2021/05/31 15:18:50;;;;;;;;;9.00;8.00;;;;;23.38;38.50;101190.22;4999462;28;45225;-55
2021/05/31 15:21:15;;;;;;;;;8.67;7.33;;;;;23.39;38.36;101189.28;5014509;27;45371;-55
2021/05/31 15:23:42;;;;;;;;;6.67;6.33;;;;;23.39;38.28;101184.84;5023400;27;45335;-55
2021/05/31 15:26:08;;;;;;;;;6.00;6.00;;;;;23.40;38.11;101177.75;4979638;28;46327;-55
2021/05/31 15:28:38;;;;;;;;;6.00;6.00;;;;;23.40;38.17;101172.47;4979517;28;45319;-55
2021/05/31 15:31:07;;;;;;;;;5.67;5.67;;;;;23.40;38.00;101173.31;4980075;28;45232;-55
2021/05/31 15:33:32;;;;;;;;;8.67;7.67;;;;;23.41;37.93;101171.53;4980239;28;45572;-55
2021/05/31 15:35:58;;;;;;;;;7.00;6.00;;;;;23.42;37.98;101178.56;4979401;28;46109;-55
2021/05/31 15:38:23;;;;;;;;;7.67;7.67;;;;;23.43;38.04;101181.09;4979630;28;45378;-55
2021/05/31 15:40:50;;;;;;;;;6.67;6.67;;;;;23.44;38.28;101171.38;4979855;28;45434;-54
2021/05/31 15:43:15;;;;;;;;;7.00;6.33;;;;;23.44;38.17;101171.38;4977869;28;45228;-53
2021/05/31 15:45:41;;;;;;;;;5.67;5.67;;;;;23.46;38.31;101166.00;4977729;28;47204;-55
2021/05/31 15:48:08;;;;;;;;;8.67;8.00;;;;;23.46;38.02;101155.41;4978352;28;45251;-60
2021/05/31 15:50:37;;;;;;;;;6.33;6.33;;;;;23.47;38.04;101155.31;4978636;28;45386;-55
2021/05/31 15:53:04;;;;;;;;;6.67;6.33;;;;;23.48;37.81;101156.19;4978550;28;45329;-54
2021/05/31 15:55:29;;;;;;;;;7.33;7.33;;;;;23.48;38.19;101141.16;4978314;28;46161;-55
2021/05/31 15:57:57;;;;;;;;;9.00;7.00;;;;;23.50;37.45;101141.09;4978330;28;45350;-59
2021/05/31 16:00:22;;;;;;;;;7.00;7.00;;;;;23.51;38.29;101137.50;4979855;28;45269;-58
2021/05/31 16:02:48;;;;;;;;;6.00;6.00;;;;;23.54;38.01;101139.97;4979707;28;45212;-59
2021/05/31 16:05:13;;;;;;;;;6.00;6.00;;;;;23.55;38.18;101144.34;4977336;28;46080;-56
2021/05/31 16:07:39;;;;;;;;;7.33;6.33;;;;;23.57;37.59;101134.53;4979484;28;45262;-56
2021/05/31 16:10:06;;;;;;;;;5.00;5.00;;;;;23.58;38.28;101134.47;4979641;28;45516;-55
2021/05/31 16:12:31;;;;;;;;;8.00;8.00;;;;;23.60;37.53;101124.63;4979426;28;45592;-56
2021/05/31 16:14:57;;;;;;;;;8.33;8.33;;;;;23.62;37.64;101116.63;4979216;28;45310;-55
2021/05/31 16:17:22;;;;;;;;;5.67;5.67;;;;;23.63;37.86;101118.34;4977870;28;45327;-55
2021/05/31 16:19:48;;;;;;;;;7.00;6.33;;;;;23.65;37.24;101123.53;4978703;28;57394;-56
2021/05/31 16:22:17;;;;;;;;;8.00;7.33;;;;;23.67;37.57;101130.47;4977400;27;45456;-55
2021/05/31 16:27:23;;;;;;;;;7.00;7.00;;;;;23.72;37.21;101130.25;4985823;28;45277;-54
2021/05/31 16:29:49;;;;;;;;;6.00;6.00;;;;;23.74;37.38;101125.75;4984290;28;45307;-55
2021/05/31 16:32:14;;;;;;;;;7.33;6.33;;;;;23.78;37.67;101118.50;4987922;28;52773;-55
2021/05/31 16:34:39;;;;;;;;;7.00;7.00;;;;;23.79;37.56;101118.41;4997976;28;60851;-55
2021/05/31 16:37:07;;;;;;;;;6.33;6.00;;;;;23.81;37.51;101103.28;4998833;28;45457;-57
2021/05/31 16:39:32;;;;;;;;;7.33;6.00;;;;;23.83;37.27;101112.00;4998563;28;45395;-55
2021/05/31 16:41:58;;;;;;;;;6.00;6.00;;;;;23.86;36.94;101103.03;4994266;28;45312;-55
2021/05/31 16:44:23;;;;;;;;;6.33;5.67;;;;;23.88;36.91;101102.03;4994512;28;46296;-56
2021/05/31 16:46:48;;;;;;;;;7.00;7.00;;;;;23.90;36.74;101102.78;4998318;28;45718;-56
2021/05/31 16:49:14;;;;;;;;;6.67;6.00;;;;;23.94;36.70;101097.31;5013585;28;45798;-58
2021/05/31 16:51:39;;;;;;;;;6.00;5.00;;;;;23.97;37.31;101099.84;4998935;28;45210;-56
2021/05/31 16:54:05;;;;;;;;;6.00;6.00;;;;;24.00;36.90;101092.59;4998257;28;45483;-56
2021/05/31 16:56:30;;;;;;;;;6.67;5.67;;;;;24.04;36.63;101099.44;4998562;28;45255;-58
2021/05/31 16:58:56;;;;;;;;;6.33;5.67;;;;;24.07;36.60;101086.97;4997163;28;45545;-56
2021/05/31 17:01:26;;;;;;;;;7.00;6.00;;;;;24.09;36.85;101085.94;4998667;28;45378;-55
2021/05/31 17:03:51;;;;;;;;;5.00;5.00;;;;;24.13;36.87;101091.94;4997141;28;46095;-56
2021/05/31 17:06:19;;;;;;;;;5.00;5.00;;;;;24.16;36.66;101091.78;4986669;27;45336;-57
2021/05/31 17:08:46;;;;;;;;;7.00;5.33;;;;;24.18;36.55;101092.56;4977141;28;45492;-56
2021/05/31 17:19:19;;;;;;;;;5.33;5.33;;;;;24.29;36.07;101084.03;4978237;28;45168;-55
2021/05/31 17:21:48;;;;;;;;;8.00;6.33;;;;;24.32;36.06;101083.88;4978847;28;45365;-55
2021/05/31 17:24:15;;;;;;;;;7.00;7.00;;;;;24.33;36.45;101081.13;5011271;27;46331;-56
2021/05/31 17:26:40;;;;;;;;;6.67;5.67;;;;;24.35;35.59;101086.34;4994815;28;45458;-55
2021/05/31 17:29:09;;;;;;;;;5.67;5.67;;;;;24.37;36.33;101083.59;4987045;28;45278;-56
2021/05/31 17:34:06;;;;;;;;;6.33;6.33;;;;;24.38;35.50;101082.66;5000188;28;45691;-56
2021/05/31 17:36:31;;;;;;;;;7.00;7.00;;;;;24.36;36.25;101072.13;4999620;27;45501;-56
2021/05/31 17:38:57;;;;;;;;;7.00;7.00;;;;;24.35;36.16;101075.75;5001145;27;45389;-55
2021/05/31 17:41:23;;;;;;;;;6.00;6.00;;;;;24.31;35.65;101067.06;5059563;28;45420;-56
2021/05/31 17:43:48;;;;;;;;;7.33;5.67;;;;;24.29;35.82;101060.16;4992510;28;45307;-56
2021/05/31 17:46:14;;;;;;;;;5.67;5.33;;;;;24.27;35.26;101062.91;5000758;28;45351;-57
2021/05/31 17:48:39;;;;;;;;;7.00;7.00;;;;;24.24;35.52;101060.41;4999682;28;45303;-56
2021/05/31 17:51:04;;;;;;;;;5.67;5.67;;;;;24.23;35.80;101064.00;5001157;28;45309;-55
2021/05/31 17:53:31;;;;;;;;;5.67;5.67;;;;;24.20;35.99;101070.31;4989113;27;48014;-57
2021/05/31 17:55:56;;;;;;;;;5.00;5.00;;;;;24.18;36.15;101063.38;4981137;28;45331;-57
2021/05/31 17:58:22;;;;;;;;;7.00;6.00;;;;;24.16;35.84;101070.56;4981186;28;45607;-56
2021/05/31 18:00:48;;;;;;;;;8.00;6.33;;;;;24.14;36.05;101065.34;4981246;28;45194;-56
2021/05/31 18:03:14;;;;;;;;;5.00;5.00;;;;;24.12;35.91;101051.31;4979509;28;48225;-57
2021/05/31 18:05:40;;;;;;;;;5.67;5.67;;;;;24.11;35.92;101059.38;4981154;28;45226;-57
2021/05/31 18:08:11;;;;;;;;;5.00;5.00;;;;;24.10;35.87;101060.31;4979817;28;45425;-57
2021/05/31 18:10:37;;;;;;;;;4.00;4.00;;;;;24.09;35.79;101061.25;4981142;28;45227;-56
2021/05/31 18:13:03;;;;;;;;;6.33;6.33;;;;;24.08;36.42;101059.53;4990770;28;46312;-57
2021/05/31 18:15:29;;;;;;;;;5.33;4.67;;;;;24.05;36.76;101061.41;4982767;28;45351;-56
2021/05/31 18:17:54;;;;;;;;;6.00;6.00;;;;;24.04;36.37;101059.69;4980595;28;45345;-57
2021/05/31 18:20:21;;;;;;;;;6.00;6.00;;;;;24.03;36.10;101062.44;4963450;28;45419;-57
2021/05/31 18:22:47;;;;;;;;;4.00;4.00;;;;;24.02;36.21;101061.56;5008990;27;46448;-56
2021/05/31 18:25:15;;;;;;;;;5.33;5.00;;;;;24.01;36.03;101073.09;4995422;27;45376;-58
2021/05/31 18:27:42;;;;;;;;;5.00;5.00;;;;;24.00;36.70;101063.44;4980632;28;45314;-57
2021/05/31 18:30:10;;;;;;;;;8.00;5.33;;;;;23.99;36.56;101058.22;4980997;28;45684;-57
2021/05/31 18:32:37;;;;;;;;;5.00;5.00;;;;;23.99;36.40;101064.38;4992729;28;45333;-58
2021/05/31 18:35:03;;;;;;;;;7.00;6.00;;;;;23.97;36.20;101052.16;4997963;28;45355;-57
2021/05/31 18:37:28;;;;;;;;;7.00;7.00;;;;;23.97;36.07;101050.38;5000260;28;45400;-55
2021/05/31 18:39:55;;;;;;;;;7.00;6.00;;;;;23.97;36.68;101062.75;5000044;28;45437;-57
2021/05/31 18:42:20;;;;;;;;;6.67;6.67;;;;;23.96;36.36;101051.31;4995439;28;45389;-56
2021/05/31 18:44:46;;;;;;;;;6.00;6.00;;;;;23.96;36.64;101058.34;4999321;28;45313;-56
2021/05/31 18:47:11;;;;;;;;;5.00;5.00;;;;;23.95;36.35;101059.28;4997983;28;45385;-57
2021/05/31 18:49:36;;;;;;;;;7.00;7.00;;;;;23.94;36.49;101062.88;5000430;27;45389;-56
2021/05/31 18:52:03;;;;;;;;;6.33;5.67;;;;;23.93;36.62;101059.38;5000438;28;46129;-54
2021/05/31 18:54:28;;;;;;;;;3.00;2.33;;;;;23.92;36.02;101057.66;4995519;28;45394;-55
2021/05/31 18:56:53;;;;;;;;;7.67;7.00;;;;;23.92;36.54;101062.97;4992599;28;50538;-56
2021/05/31 18:59:20;;;;;;;;;6.00;6.00;;;;;23.92;36.67;101057.66;4999556;28;54991;-56
2021/05/31 19:01:46;;;;;;;;;6.00;6.00;;;;;23.92;36.81;101062.97;4995508;27;48446;-57
2021/05/31 19:04:12;;;;;;;;;4.67;4.67;;;;;23.92;36.53;101064.75;4998030;27;45503;-59
2021/05/31 19:06:37;;;;;;;;;5.00;5.00;;;;;23.90;36.30;101059.53;4996764;27;45589;-61
2021/05/31 19:09:04;;;;;;;;;8.00;7.00;;;;;23.88;36.03;101054.34;4981476;28;45649;-67
2021/05/31 19:11:29;;;;;;;;;5.67;5.33;;;;;23.88;36.45;101062.28;4980725;28;47549;-61
2021/05/31 19:13:55;;;;;;;;;8.00;8.00;;;;;23.88;36.28;101064.94;4985145;28;45341;-60
2021/05/31 19:16:20;;;;;;;;;5.33;5.33;;;;;23.89;36.43;101057.81;4985328;28;45531;-59
2021/05/31 19:18:46;;;;;;;;;5.67;5.67;;;;;23.89;36.75;101069.28;4981340;27;45473;-59
2021/05/31 19:21:12;;;;;;;;;4.67;4.67;;;;;23.90;36.64;101059.53;5051128;28;47062;-60
2021/05/31 19:23:40;;;;;;;;;7.00;7.00;;;;;23.90;36.96;101065.69;4983895;27;45442;-60
2021/05/31 19:26:09;;;;;;;;;7.00;6.00;;;;;23.92;36.86;101070.03;4985067;27;45404;-63
2021/05/31 19:28:34;;;;;;;;;5.33;5.33;;;;;23.92;36.87;101067.41;4984658;27;45501;-66
2021/05/31 19:31:03;;;;;;;;;7.00;7.00;;;;;23.92;37.25;101055.00;4983197;27;45670;-64
2021/05/31 19:33:29;;;;;;;;;7.00;7.00;;;;;23.93;36.96;101061.16;4981364;28;45608;-67
2021/05/31 19:35:54;;;;;;;;;8.33;7.00;;;;;23.94;36.84;101061.09;4986313;27;45706;-64
2021/05/31 19:38:20;;;;;;;;;6.00;5.33;;;;;23.95;36.53;101067.25;4984852;27;45483;-63
2021/05/31 19:40:48;;;;;;;;;6.33;6.33;;;;;23.95;36.90;101069.88;4981812;27;45492;-61
2021/05/31 19:43:16;;;;;;;;;5.33;5.33;;;;;23.95;36.74;101062.81;4978953;27;45381;-63
2021/05/31 19:45:41;;;;;;;;;7.33;5.33;;;;;23.96;37.22;101063.66;4982119;27;45225;-61
2021/05/31 19:48:08;;;;;;;;;5.00;5.00;;;;;23.98;36.89;101072.41;4978604;27;45618;-65
2021/05/31 19:50:34;;;;;;;;;6.00;6.00;;;;;23.99;37.26;101064.38;4980537;27;46096;-65
2021/05/31 19:53:03;;;;;;;;;4.67;4.67;;;;;24.00;36.99;101066.09;4980605;27;45344;-63
2021/05/31 20:00:41;;;;;;;;;5.00;5.00;;;;;24.02;37.08;101069.50;4987420;27;45393;-58
2021/05/31 20:03:07;;;;;;;;;6.00;6.00;;;;;24.03;37.28;101078.34;4992593;27;45884;-57
2021/05/31 20:05:32;;;;;;;;;9.00;6.00;;;;;24.02;36.78;101071.31;4987536;27;45325;-55
2021/05/31 20:07:57;;;;;;;;;5.33;5.33;;;;;24.01;37.26;101078.41;4993448;27;45589;-55
2021/05/31 20:10:26;;;;;;;;;6.00;6.00;;;;;24.03;36.77;101078.34;4985999;27;46759;-56
2021/05/31 20:12:54;;;;;;;;;7.67;6.33;;;;;24.03;36.93;101086.28;4998068;27;45453;-58
2021/05/31 20:15:21;;;;;;;;;8.33;8.00;;;;;24.02;36.97;101082.75;4982562;27;45403;-60
2021/05/31 20:17:48;;;;;;;;;7.00;6.00;;;;;24.04;37.17;101090.66;4993798;27;45569;-59
2021/05/31 20:20:17;;;;;;;;;5.67;5.67;;;;;24.05;37.26;101090.56;4984396;27;47057;-58
2021/05/31 20:22:44;;;;;;;;;7.00;7.00;;;;;24.07;37.47;101085.16;4994628;27;45262;-58
2021/05/31 20:25:10;;;;;;;;;6.67;6.67;;;;;24.07;37.09;101093.13;4987720;27;45534;-58
2021/05/31 20:27:37;;;;;;;;;6.67;6.67;;;;;24.07;37.19;101095.78;4985826;28;45506;-57
2021/05/31 20:30:08;;;;;;;;;6.67;5.67;;;;;24.07;37.17;101090.47;4984870;28;45335;-58
2021/05/31 20:32:34;;;;;;;;;6.00;6.00;;;;;24.07;37.43;101089.63;4994927;27;45421;-57
2021/05/31 20:34:59;;;;;;;;;7.00;7.00;;;;;24.07;37.33;101089.63;4980706;27;45300;-56
2021/05/31 20:37:25;;;;;;;;;6.33;6.33;;;;;24.06;37.16;101094.06;4978617;27;45330;-57
2021/05/31 20:39:50;;;;;;;;;7.33;7.33;;;;;24.06;37.50;101088.75;4984763;27;46203;-58
2021/05/31 20:42:16;;;;;;;;;6.00;6.00;;;;;24.05;37.43;101095.88;4978235;27;45472;-58
2021/05/31 20:44:43;;;;;;;;;6.33;5.33;;;;;24.06;36.92;101094.06;4992835;27;45504;-59
2021/05/31 20:47:08;;;;;;;;;8.00;7.67;;;;;24.05;37.00;101093.22;4980652;27;45589;-57
2021/05/31 20:49:33;;;;;;;;;10.33;10.00;;;;;24.05;37.59;101092.34;4985326;27;55246;-58
2021/05/31 20:51:59;;;;;;;;;7.00;7.00;;;;;24.05;37.59;101089.69;4986868;27;45456;-58
2021/05/31 20:54:25;;;;;;;;;7.00;7.00;;;;;24.04;36.97;101086.19;4985589;27;55643;-58
2021/05/31 20:56:50;;;;;;;;;6.00;6.00;;;;;24.04;37.33;101088.84;4977981;27;45382;-58
2021/05/31 20:59:16;;;;;;;;;7.67;7.67;;;;;24.04;37.17;101088.00;4986000;27;46219;-59
2021/05/31 21:01:42;;;;;;;;;8.00;8.00;;;;;24.03;37.33;101087.13;4982127;27;45397;-58
2021/05/31 21:04:07;;;;;;;;;8.00;6.33;;;;;24.04;37.15;101086.19;4979741;27;45539;-58
2021/05/31 21:06:33;;;;;;;;;10.33;7.67;;;;;24.04;37.04;101088.84;4980202;27;45643;-59
2021/05/31 21:09:14;;;;;;;;;5.33;5.33;;;;;24.05;37.03;101093.22;4983310;27;45515;-59
2021/05/31 21:11:53;;;;;;;;;80.50;67.25;;;;;24.05;37.25;101079.97;4981096;27;45414;-60
2021/05/31 21:14:23;;;;;;;;;53.50;42.50;;;;;24.05;37.79;101081.75;4994549;27;45462;-60
2021/05/31 21:16:51;;;;;;;;;28.00;23.00;;;;;24.04;37.50;101072.94;4987564;27;45303;-58
2021/05/31 21:19:17;;;;;;;;;13.00;11.00;;;;;24.03;37.19;101079.19;4985982;27;46270;-57
2021/05/31 21:21:43;;;;;;;;;5.67;5.67;;;;;24.04;37.15;101078.25;4980359;27;45351;-57
2021/05/31 21:24:10;;;;;;;;;10.33;10.00;;;;;24.03;37.39;101073.03;4993372;27;56053;-57
2021/05/31 21:26:35;;;;;;;;;7.00;7.00;;;;;24.04;37.43;101074.75;5013352;27;45557;-59
2021/05/31 21:29:01;;;;;;;;;9.00;9.00;;;;;24.04;37.38;101074.75;4985176;27;46168;-59
2021/05/31 21:31:27;;;;;;;;;119.75;94.50;;;;;24.03;37.70;101076.53;4980975;27;45211;-59
2021/05/31 21:33:52;;;;;;;;;313.33;249.67;;;;;24.03;37.32;101073.03;4981080;27;45982;-58
2021/05/31 21:36:18;;;;;;;;;328.67;261.33;;;;;24.03;37.66;101073.03;4990542;27;45334;-57
2021/05/31 21:38:44;;;;;;;;;215.50;171.25;;;;;24.02;37.18;101071.31;4975622;28;45264;-58
2021/05/31 21:41:10;;;;;;;;;192.67;150.67;;;;;24.02;37.26;101066.03;4986673;27;45587;-57
2021/05/31 21:43:36;;;;;;;;;365.25;294.75;;;;;24.01;37.11;101073.09;4987150;27;45563;-59
2021/05/31 21:46:02;;;;;;;;;249.00;206.00;;;;;24.01;37.16;101073.09;4980730;27;45483;-51
2021/05/31 21:48:28;;;;;;;;;122.25;103.25;;;;;24.00;37.67;101068.72;4993057;28;46166;-57
2021/05/31 21:50:54;;;;;;;;;104.75;83.50;;;;;24.00;37.00;101058.13;5000610;28;45539;-57
2021/05/31 21:53:19;;;;;;;;;61.25;45.00;;;;;24.00;37.43;101068.72;4999553;28;45330;-57
2021/05/31 21:55:44;;;;;;;;;37.67;30.33;;;;;23.99;37.59;101064.38;5001263;28;45587;-57
2021/05/31 21:58:11;;;;;;;;;16.00;16.00;;;;;24.00;37.20;101062.59;5016095;27;46171;-58
2021/05/31 22:00:45;;;;;;;;;15.00;14.33;;;;;23.99;37.56;101060.88;5000859;28;45257;-57
2021/05/31 22:03:16;;;;;;;;;12.33;11.33;;;;;23.98;37.58;101057.34;4996526;27;45372;-58
2021/05/31 22:05:46;;;;;;;;;9.00;9.00;;;;;23.98;37.19;101057.34;5016349;28;45487;-57
2021/05/31 22:08:12;;;;;;;;;13.33;9.33;;;;;23.97;37.12;101058.31;5000656;28;46694;-57
2021/05/31 22:10:39;;;;;;;;;10.33;9.00;;;;;23.96;37.27;101058.34;5000821;28;45258;-56
2021/05/31 22:13:09;;;;;;;;;10.33;10.33;;;;;23.96;37.61;101061.00;5000680;28;45346;-57
2021/05/31 22:15:49;;;;;;;;;11.33;10.67;;;;;23.95;37.08;101056.63;5000970;28;45481;-57
2021/05/31 22:18:15;;;;;;;;;12.00;9.00;;;;;23.94;37.54;101058.44;4999979;28;47081;-57
2021/05/31 22:20:41;;;;;;;;;12.00;10.67;;;;;23.94;37.06;101058.44;5000710;28;45191;-57
2021/05/31 22:23:24;;;;;;;;;10.33;10.33;;;;;23.92;37.43;101056.78;5010937;27;45312;-58
2021/05/31 22:25:55;;;;;;;;;12.67;12.67;;;;;23.92;37.01;101062.97;4981396;28;45236;-58
2021/05/31 22:31:08;;;;;;;;;13.00;11.33;;;;;23.89;36.96;101052.53;4980825;28;45402;-58
2021/05/31 22:33:33;;;;;;;;;14.33;13.67;;;;;23.88;36.89;101049.03;5000590;28;45242;-58
2021/05/31 22:35:59;;;;;;;;;13.00;11.00;;;;;23.87;37.69;101047.31;4999344;28;45271;-58
2021/05/31 22:41:01;;;;;;;;;9.00;9.00;;;;;23.86;37.29;101040.31;5000595;28;45391;-58
2021/05/31 23:05:52;;;;;;;;;10.33;10.33;;;;;23.81;37.40;101044.97;5000213;27;45148;-58
2021/05/31 23:13:37;;;;;;;;;11.00;10.00;;;;;23.78;37.27;101041.66;5000098;28;45322;-58
2021/05/31 23:16:03;;;;;;;;;10.00;10.00;;;;;23.79;37.29;101044.19;4999732;28;48523;-58
2021/05/31 23:18:28;;;;;;;;;12.00;10.67;;;;;23.77;37.14;101040.78;5000017;28;45379;-58
2021/05/31 23:20:54;;;;;;;;;13.00;11.33;;;;;23.78;37.51;101031.88;5000104;27;46201;-58
2021/05/31 23:23:19;;;;;;;;;10.67;10.67;;;;;23.77;37.55;101029.31;5023690;27;45262;-58
2021/05/31 23:25:45;;;;;;;;;11.33;10.67;;;;;23.76;37.87;101028.47;4979997;28;51632;-58
2021/05/31 23:28:11;;;;;;;;;9.00;9.00;;;;;23.77;37.72;101024.03;4991711;28;55515;-58
2021/05/31 23:30:36;;;;;;;;;11.00;10.00;;;;;23.75;37.52;101022.31;4979165;28;46095;-58
2021/05/31 23:33:02;;;;;;;;;10.00;10.00;;;;;23.77;37.43;101024.03;4995564;28;45334;-58
2021/05/31 23:35:27;;;;;;;;;10.33;10.33;;;;;23.75;37.37;101018.78;5000167;28;45321;-58
2021/05/31 23:37:53;;;;;;;;;10.33;10.33;;;;;23.75;37.31;101021.44;4999370;28;58911;-58
2021/05/31 23:40:27;;;;;;;;;10.00;10.00;;;;;23.72;37.71;101018.97;4999990;28;46988;-58
2021/05/31 23:42:52;;;;;;;;;12.33;11.00;;;;;23.74;37.33;101022.41;4999643;28;45345;-58
2021/05/31 23:45:18;;;;;;;;;11.00;10.67;;;;;23.74;37.99;101030.34;4998365;28;45352;-57
2021/05/31 23:47:43;;;;;;;;;9.00;9.00;;;;;23.72;37.40;101017.16;4999865;28;45330;-58
2021/05/31 23:50:09;;;;;;;;;12.00;12.00;;;;;23.73;37.47;101018.88;4999698;28;51222;-58
2021/05/31 23:52:34;;;;;;;;;11.33;9.00;;;;;23.71;37.45;101012.81;4998394;28;45347;-58
2021/05/31 23:55:00;;;;;;;;;2.00;2.00;;;;;23.71;37.73;101011.97;4998301;28;49680;-58
2021/05/31 23:57:25;;;;;;;;;10.33;10.33;;;;;23.71;37.26;101015.47;4981522;28;54817;-58
2021/05/31 23:59:50;;;;;;;;;12.00;11.33;;;;;23.71;37.85;101012.81;4999084;28;62856;-58
